Terminal Aerodrome Forecast
Issued by NWS Melbourne, FL

Home | Current Version | Previous Version | Text Only | Print | Product List | Glossary On
Versions: 1 2 3 4 5 6 7 8 9 10 11 12 13 14 15 16 17 18 19 20 21
000
FTUS42 KMLB 242300
TAFDAB
TAF
KDAB 242320Z 2500/2524 22004KT P6SM VCTS SCT020CB BKN040 OVC050
      TEMPO 2501/2503 VRB20G30KT 3SM TSRA BKN020CB OVC040
     FM250300 24010KT P6SM VCSH BKN030 OVC060
     FM250800 28008KT P6SM BKN060
     FM251200 31008KT P6SM SCT035 BKN110 BKN250=

USA.gov is the U.S. government's official web portal to all federal, state and local government web resources and services.